Time;durP1;ratioP1;P1;durP2;ratioP2;P2;SDS_P1;SDS_P2;PMS_P1;PMS_P2;Temp;Humidity;BMP_temperature;BMP_pressure;BME280_temperature;BME280_humidity;BME280_pressure;Samples;Min_cycle;Max_cycle;Signal;HPM_P1;HPM_P2
2022/12/25 00:01:41;;;;;;;;;;;;;;;6.93;100.00;101482.69;4977308;28;19929;-64
2022/12/25 00:04:07;;;;;;;;;;;;;;;6.96;100.00;101475.81;4994539;28;19914;-64
2022/12/25 00:06:32;;;;;;;;;;;;;;;6.99;100.00;101468.09;4995125;28;20313;-65
2022/12/25 00:08:57;;;;;;;;;;;;;;;7.03;100.00;101459.50;4994715;28;20292;-64
2022/12/25 00:11:22;;;;;;;;;;;;;;;7.07;100.00;101453.50;4993433;28;19917;-64
2022/12/25 00:13:48;;;;;;;;;;;;;;;7.10;100.00;101458.63;4993887;28;19920;-65
2022/12/25 00:16:17;;;;;;;;;;;;;;;7.13;100.00;101465.53;4994347;28;19984;-64
2022/12/25 00:18:43;;;;;;;;;;;;;;;7.16;100.00;101468.13;4995569;28;19980;-64
2022/12/25 00:21:09;;;;;;;;;;;;;;;7.18;100.00;101475.84;4994494;28;20320;-65
2022/12/25 00:23:34;;;;;;;;;;;;;;;7.20;100.00;101467.25;4994226;28;19909;-65
2022/12/25 00:26:02;;;;;;;;;;;;;;;7.23;100.00;101463.81;4994956;28;19956;-64
2022/12/25 00:28:27;;;;;;;;;;;;;;;7.27;100.00;101460.38;4987464;28;19992;-65
2022/12/25 00:30:53;;;;;;;;;;;;;;;7.30;100.00;101462.97;4976597;28;20008;-65
2022/12/25 00:33:18;;;;;;;;;;;;;;;7.32;100.00;101458.66;4987351;28;19925;-64
2022/12/25 00:35:43;;;;;;;;;;;;;;;7.35;100.00;101459.53;4994072;28;19909;-65
2022/12/25 00:38:08;;;;;;;;;;;;;;;7.38;100.00;101456.06;4993718;28;19917;-65
2022/12/25 00:40:40;;;;;;;;;;;;;;;7.39;100.00;101457.78;4993645;28;20292;-65
2022/12/25 00:43:06;;;;;;;;;;;;;;;7.41;100.00;101451.78;4983505;28;20020;-65
2022/12/25 00:45:31;;;;;;;;;;;;;;;7.44;100.00;101453.47;4982198;28;19988;-65
2022/12/25 00:47:56;;;;;;;;;;;;;;;7.47;100.00;101450.91;4994910;28;19910;-65
2022/12/25 00:50:21;;;;;;;;;;;;;;;7.48;100.00;101447.47;4994456;28;20388;-65
2022/12/25 00:52:46;;;;;;;;;;;;;;;7.49;100.00;101444.03;4994138;28;19921;-65
2022/12/25 00:55:12;;;;;;;;;;;;;;;7.49;100.00;101444.88;4992118;28;19983;-65
2022/12/25 00:57:37;;;;;;;;;;;;;;;7.49;100.00;101452.63;4972219;28;19963;-65
2022/12/25 01:00:03;;;;;;;;;;;;;;;7.50;100.00;101448.34;4994270;28;20349;-65
2022/12/25 01:02:28;;;;;;;;;;;;;;;7.51;100.00;101450.88;4960035;28;19913;-65
2022/12/25 01:04:54;;;;;;;;;;;;;;;7.52;100.00;101450.03;4986085;28;19913;-65
2022/12/25 01:07:20;;;;;;;;;;;;;;;7.55;100.00;101441.44;4994610;28;20438;-65
2022/12/25 01:12:29;;;;;;;;;;;;;;;7.59;100.00;101437.97;4993019;28;19912;-65
2022/12/25 01:14:54;;;;;;;;;;;;;;;7.61;100.00;101440.56;4993210;28;19918;-65
2022/12/25 01:17:20;;;;;;;;;;;;;;;7.63;100.00;101436.25;4993603;28;20608;-65
2022/12/25 01:19:45;;;;;;;;;;;;;;;7.63;100.00;101428.53;4992644;28;19919;-65
2022/12/25 01:22:10;;;;;;;;;;;;;;;7.63;100.00;101433.69;4994028;28;19918;-65
2022/12/25 01:24:35;;;;;;;;;;;;;;;7.61;100.00;101432.81;4993033;28;19965;-65
2022/12/25 01:27:01;;;;;;;;;;;;;;;7.60;100.00;101436.25;4993824;28;20339;-65
2022/12/25 01:29:26;;;;;;;;;;;;;;;7.62;100.00;101432.81;4994665;28;19914;-65
2022/12/25 01:31:51;;;;;;;;;;;;;;;7.64;100.00;101446.59;4994251;28;19917;-65
2022/12/25 01:34:16;;;;;;;;;;;;;;;7.65;100.00;101463.75;4989147;28;19918;-65
2022/12/25 01:36:41;;;;;;;;;;;;;;;7.68;100.00;101460.31;4989582;28;19918;-65
2022/12/25 01:39:07;;;;;;;;;;;;;;;7.68;100.00;101452.59;4991180;28;19945;-65
2022/12/25 01:41:32;;;;;;;;;;;;;;;7.70;100.00;101467.22;4975745;28;19971;-65
2022/12/25 01:44:05;;;;;;;;;;;;;;;7.71;100.00;101456.00;4992239;28;20365;-65
2022/12/25 01:46:31;;;;;;;;;;;;;;;7.70;100.00;101451.72;4994831;28;19906;-65
2022/12/25 01:49:02;;;;;;;;;;;;;;;7.72;100.00;101451.69;4993277;28;19914;-65
2022/12/25 01:51:38;;;;;;;;;;;;;;;7.73;100.00;101446.53;4993472;28;19917;-65
2022/12/25 01:54:05;;;;;;;;;;;;;;;7.74;100.00;101453.44;4982980;28;20363;-65
2022/12/25 01:56:32;;;;;;;;;;;;;;;7.74;100.00;101463.75;4972721;28;19928;-65
2022/12/25 01:58:58;;;;;;;;;;;;;;;7.75;100.00;101462.03;4992090;28;19913;-65
2022/12/25 02:01:23;;;;;;;;;;;;;;;7.78;100.00;101468.03;4972950;28;19922;-65
2022/12/25 02:03:50;;;;;;;;;;;;;;;7.81;100.00;101469.75;4985878;28;19914;-65
2022/12/25 02:06:15;;;;;;;;;;;;;;;7.82;100.00;101474.06;4975208;28;19917;-65
2022/12/25 02:08:40;;;;;;;;;;;;;;;7.83;100.00;101476.66;4975052;28;20008;-65
2022/12/25 02:11:55;;;;;;;;;;;;;;;7.85;100.00;101468.88;4993309;28;19965;-65
2022/12/25 02:13:52;;;;;;;;;;;;;;;7.84;100.00;101467.19;4990819;28;20388;-65
2022/12/25 02:16:21;;;;;;;;;;;;;;;7.84;100.00;101462.88;4992230;28;20024;-65
2022/12/25 02:18:58;;;;;;;;;;;;;;;7.85;100.00;101471.47;4993116;28;19917;-65
2022/12/25 02:21:35;;;;;;;;;;;;;;;7.85;100.00;101476.63;4993000;28;19968;-65
2022/12/25 02:24:19;;;;;;;;;;;;;;;7.84;100.00;101475.78;4993115;28;19917;-66
2022/12/25 02:27:01;;;;;;;;;;;;;;;7.85;100.00;101480.06;4991814;28;19949;-65
2022/12/25 02:29:41;;;;;;;;;;;;;;;7.86;100.00;101476.63;4994103;28;19937;-65
2022/12/25 02:32:06;;;;;;;;;;;;;;;7.88;100.00;101481.78;4986253;28;19997;-65
2022/12/25 02:34:34;;;;;;;;;;;;;;;7.88;100.00;101480.06;4992891;28;19961;-65
2022/12/25 02:37:09;;;;;;;;;;;;;;;7.88;100.00;101479.22;4992654;28;19921;-65
2022/12/25 02:39:58;;;;;;;;;;;;;;;7.89;100.00;101471.47;4992721;28;19910;-65
2022/12/25 03:07:25;;;;;;;;;;;;;;;7.70;100.00;101425.06;4991496;28;19925;-69
2022/12/25 03:12:49;;;;;;;;;;;;;;;7.58;100.00;101407.88;4991401;28;19964;-69
2022/12/25 03:18:01;;;;;;;;;;;;;;;7.45;100.00;101380.41;4993798;28;19920;-69
2022/12/25 03:28:41;;;;;;;;;;;;;;;7.17;100.00;101383.88;4994768;28;19964;-69
2022/12/25 03:31:24;;;;;;;;;;;;;;;7.10;100.00;101388.19;4993889;28;19917;-69
2022/12/25 03:37:17;;;;;;;;;;;;;;;6.96;100.00;101374.47;4988886;28;20012;-69
2022/12/25 04:37:53;;;;;;;;;;;;;;;6.43;100.00;101369.25;4994684;28;19940;-66
2022/12/25 04:40:19;;;;;;;;;;;;;;;6.41;100.00;101369.28;4994497;28;20319;-66
2022/12/25 04:42:44;;;;;;;;;;;;;;;6.38;100.00;101366.69;4992869;28;20064;-66
2022/12/25 04:45:09;;;;;;;;;;;;;;;6.33;100.00;101369.25;4994863;28;19960;-66
2022/12/25 04:47:34;;;;;;;;;;;;;;;6.29;100.00;101375.25;4992981;28;19913;-66
2022/12/25 04:50:00;;;;;;;;;;;;;;;6.24;100.00;101366.66;4994519;28;19914;-65
2022/12/25 04:52:25;;;;;;;;;;;;;;;6.21;100.00;101364.06;4994342;28;20012;-66
2022/12/25 04:54:50;;;;;;;;;;;;;;;6.19;100.00;101370.09;4993740;28;19913;-66
2022/12/25 04:57:15;;;;;;;;;;;;;;;6.14;100.00;101364.06;4993489;28;19921;-66
2022/12/25 04:59:41;;;;;;;;;;;;;;;6.08;100.00;101364.03;4994716;28;19921;-66
2022/12/25 05:02:06;;;;;;;;;;;;;;;6.01;100.00;101358.00;4992671;28;19924;-66
2022/12/25 05:04:31;;;;;;;;;;;;;;;5.94;100.00;101357.13;4994104;28;20399;-66
2022/12/25 05:06:57;;;;;;;;;;;;;;;5.90;100.00;101359.69;4993088;28;19926;-66
2022/12/25 05:09:23;;;;;;;;;;;;;;;5.88;100.00;101366.53;4993452;28;19980;-65
2022/12/25 05:11:48;;;;;;;;;;;;;;;5.83;100.00;101368.19;4991510;28;19968;-66
2022/12/25 05:14:14;;;;;;;;;;;;;;;5.78;100.00;101365.63;4992653;28;19917;-66
2022/12/25 05:16:39;;;;;;;;;;;;;;;5.72;100.00;101355.31;4990472;28;20359;-66
2022/12/25 05:19:04;;;;;;;;;;;;;;;5.68;100.00;101360.41;4994139;28;19914;-66
2022/12/25 05:21:29;;;;;;;;;;;;;;;5.65;100.00;101357.84;4992777;28;19917;-66
2022/12/25 05:23:55;;;;;;;;;;;;;;;5.60;100.00;101350.09;4993164;28;19945;-66
2022/12/25 05:26:21;;;;;;;;;;;;;;;5.57;100.00;101345.81;4993532;28;19953;-66
2022/12/25 05:28:47;;;;;;;;;;;;;;;5.59;100.00;101357.81;4993645;28;19917;-66
2022/12/25 05:31:12;;;;;;;;;;;;;;;5.63;100.00;101352.69;4992368;28;20004;-65
2022/12/25 05:33:37;;;;;;;;;;;;;;;5.67;100.00;101341.56;4987149;28;19914;-66
2022/12/25 05:36:03;;;;;;;;;;;;;;;5.71;100.00;101334.72;4993090;28;19918;-66
2022/12/25 05:38:29;;;;;;;;;;;;;;;5.78;100.00;101328.75;4993355;28;20400;-66
2022/12/25 05:40:54;;;;;;;;;;;;;;;5.85;100.00;101321.06;4989311;28;20019;-66
2022/12/25 05:43:19;;;;;;;;;;;;;;;5.96;100.00;101326.25;4991713;28;19924;-65
2022/12/25 05:45:44;;;;;;;;;;;;;;;6.08;100.00;101325.44;4992673;28;20118;-66
2022/12/25 05:48:09;;;;;;;;;;;;;;;6.18;100.00;101325.47;4993060;28;19920;-66
2022/12/25 05:50:36;;;;;;;;;;;;;;;6.24;100.00;101330.63;4992587;28;19910;-65
2022/12/25 05:53:02;;;;;;;;;;;;;;;6.31;100.00;101327.19;4992959;28;20707;-66
2022/12/25 05:55:27;;;;;;;;;;;;;;;6.39;100.00;101329.78;4992270;28;19917;-66
2022/12/25 05:57:52;;;;;;;;;;;;;;;6.45;100.00;101327.22;4993081;28;19921;-66
2022/12/25 06:00:18;;;;;;;;;;;;;;;6.50;100.00;101330.66;4990154;28;19921;-69
2022/12/25 06:02:43;;;;;;;;;;;;;;;6.55;100.00;101325.53;4992265;28;19924;-69
2022/12/25 06:05:08;;;;;;;;;;;;;;;6.61;100.00;101316.09;4990453;28;20270;-69
2022/12/25 06:07:34;;;;;;;;;;;;;;;6.66;100.00;101316.94;4986324;28;20396;-69
2022/12/25 06:09:59;;;;;;;;;;;;;;;6.70;100.00;101304.88;4992502;28;19914;-69
2022/12/25 06:12:24;;;;;;;;;;;;;;;6.72;100.00;101304.03;4990755;28;19914;-69
2022/12/25 06:14:49;;;;;;;;;;;;;;;6.77;100.00;101305.75;4990104;28;19921;-69
2022/12/25 06:17:14;;;;;;;;;;;;;;;6.81;100.00;101304.91;4991314;28;19914;-69
2022/12/25 06:19:40;;;;;;;;;;;;;;;6.85;100.00;101304.03;4992120;28;19933;-69
2022/12/25 06:22:06;;;;;;;;;;;;;;;6.89;100.00;101304.00;4986769;28;19940;-69
2022/12/25 06:24:31;;;;;;;;;;;;;;;6.93;100.00;101298.00;4989163;28;20288;-69
2022/12/25 06:26:56;;;;;;;;;;;;;;;6.95;100.00;101283.41;4990424;28;20447;-69
2022/12/25 06:29:21;;;;;;;;;;;;;;;7.00;100.00;101273.94;4991636;28;20005;-66
2022/12/25 06:31:47;;;;;;;;;;;;;;;7.04;100.00;101270.47;4985108;28;19920;-66
2022/12/25 06:34:15;;;;;;;;;;;;;;;7.08;100.00;101277.38;4993107;28;19913;-66
2022/12/25 06:36:40;;;;;;;;;;;;;;;7.13;100.00;101279.94;4991718;28;20043;-66
2022/12/25 06:39:06;;;;;;;;;;;;;;;7.16;100.00;101279.06;4993477;28;19945;-66
2022/12/25 06:41:31;;;;;;;;;;;;;;;7.19;100.00;101266.16;4991922;28;20379;-66
2022/12/25 06:43:58;;;;;;;;;;;;;;;7.22;100.00;101261.84;4992993;28;20364;-66
2022/12/25 06:46:24;;;;;;;;;;;;;;;7.26;100.00;101247.22;4993775;28;19921;-66
2022/12/25 06:48:50;;;;;;;;;;;;;;;7.30;100.00;101251.53;4997447;28;19914;-66
2022/12/25 06:51:16;;;;;;;;;;;;;;;7.33;100.00;101247.19;4996079;28;19940;-66
2022/12/25 06:53:41;;;;;;;;;;;;;;;7.36;100.00;101242.03;4994415;28;19913;-66
2022/12/25 06:56:08;;;;;;;;;;;;;;;7.41;100.00;101247.16;4995704;28;19914;-66
2022/12/25 06:58:33;;;;;;;;;;;;;;;7.44;100.00;101236.81;4996094;28;20202;-66
2022/12/25 07:00:59;;;;;;;;;;;;;;;7.46;100.00;101219.63;4995966;28;19918;-66
2022/12/25 07:03:27;;;;;;;;;;;;;;;7.48;100.00;101212.75;4966256;28;19920;-66
2022/12/25 07:05:52;;;;;;;;;;;;;;;7.49;100.00;101210.16;4980064;28;19968;-66
2022/12/25 07:08:17;;;;;;;;;;;;;;;7.52;100.00;101219.59;4993614;28;19964;-66
2022/12/25 07:10:42;;;;;;;;;;;;;;;7.55;100.00;101227.34;4992712;28;19964;-66
2022/12/25 07:13:08;;;;;;;;;;;;;;;7.56;100.00;101221.31;4994205;28;19913;-66
2022/12/25 07:15:33;;;;;;;;;;;;;;;7.59;100.00;101220.41;4994240;28;20284;-66
2022/12/25 07:17:58;;;;;;;;;;;;;;;7.59;100.00;101239.34;4984076;28;20289;-66
2022/12/25 07:20:24;;;;;;;;;;;;;;;7.61;100.00;101242.78;4996031;28;20004;-66
2022/12/25 07:22:49;;;;;;;;;;;;;;;7.62;100.00;101239.34;4995769;28;19918;-65
2022/12/25 07:25:14;;;;;;;;;;;;;;;7.66;100.00;101242.75;4995396;28;19968;-66
2022/12/25 07:27:40;;;;;;;;;;;;;;;7.67;100.00;101250.47;4994942;28;19925;-66
2022/12/25 07:30:05;;;;;;;;;;;;;;;7.70;100.00;101260.78;4994471;28;20348;-69
2022/12/25 07:32:31;;;;;;;;;;;;;;;7.72;100.00;101264.19;4994082;28;19913;-69
2022/12/25 07:34:56;;;;;;;;;;;;;;;7.74;100.00;101262.47;4997795;28;19917;-69
2022/12/25 07:37:21;;;;;;;;;;;;;;;7.75;100.00;101268.50;4994504;28;19918;-69
2022/12/25 07:39:46;;;;;;;;;;;;;;;7.76;100.00;101263.34;4991147;28;19921;-63
2022/12/25 07:42:11;;;;;;;;;;;;;;;7.78;100.00;101264.16;4989739;28;19972;-63
2022/12/25 07:44:37;;;;;;;;;;;;;;;7.80;100.00;101269.31;4994064;28;19913;-63
2022/12/25 07:47:02;;;;;;;;;;;;;;;7.80;100.00;101246.97;4988873;28;20020;-63
2022/12/25 07:49:27;;;;;;;;;;;;;;;7.80;100.00;101220.28;4993594;28;19909;-63
2022/12/25 07:51:52;;;;;;;;;;;;;;;7.81;100.00;101222.00;4992165;28;19924;-63
2022/12/25 07:54:18;;;;;;;;;;;;;;;7.81;100.00;101222.88;4993799;28;19913;-64
2022/12/25 07:56:43;;;;;;;;;;;;;;;7.83;100.00;101233.19;4995950;28;19914;-63
2022/12/25 07:59:08;;;;;;;;;;;;;;;7.82;100.00;101234.06;4996674;28;19975;-64
2022/12/25 08:01:34;;;;;;;;;;;;;;;7.83;100.00;101252.13;4978480;28;19952;-64
2022/12/25 08:04:00;;;;;;;;;;;;;;;7.87;100.00;101278.75;4997521;28;19917;-64
2022/12/25 08:06:28;;;;;;;;;;;;;;;7.88;100.00;101291.66;4998479;28;19910;-64
2022/12/25 08:08:54;;;;;;;;;;;;;;;7.90;100.00;101284.78;4988971;28;19913;-64
2022/12/25 08:11:19;;;;;;;;;;;;;;;7.93;100.00;101278.72;4999206;28;19910;-64
2022/12/25 08:13:44;;;;;;;;;;;;;;;7.96;100.00;101276.13;4999104;28;19937;-64
2022/12/25 08:16:10;;;;;;;;;;;;;;;7.96;100.00;101277.84;4997859;28;19913;-64
2022/12/25 08:18:36;;;;;;;;;;;;;;;7.97;100.00;101284.72;4997183;28;20330;-64
2022/12/25 08:21:02;;;;;;;;;;;;;;;7.96;100.00;101289.03;4984447;28;19913;-64
2022/12/25 08:23:28;;;;;;;;;;;;;;;7.98;100.00;101304.53;4995400;28;19914;-64
2022/12/25 08:25:57;;;;;;;;;;;;;;;7.99;100.00;101311.38;4998812;28;19910;-64
2022/12/25 08:28:22;;;;;;;;;;;;;;;8.01;100.00;101307.94;4998719;28;19914;-63
2022/12/25 08:30:47;;;;;;;;;;;;;;;8.03;100.00;101293.28;4996566;28;19937;-63
2022/12/25 08:33:12;;;;;;;;;;;;;;;8.04;100.00;101278.66;4991840;28;20012;-63
2022/12/25 08:35:38;;;;;;;;;;;;;;;8.04;100.00;101273.50;4992628;28;19918;-63
2022/12/25 08:38:03;;;;;;;;;;;;;;;8.04;100.00;101292.44;5006418;28;19947;-63
2022/12/25 08:40:28;;;;;;;;;;;;;;;8.05;100.00;101285.53;4997656;28;20950;-63
2022/12/25 08:42:56;;;;;;;;;;;;;;;8.07;100.00;101291.53;4994269;28;20295;-63
2022/12/25 08:45:22;;;;;;;;;;;;;;;8.09;100.00;101284.66;4994551;28;19995;-63
2022/12/25 08:47:47;;;;;;;;;;;;;;;8.12;100.00;101300.13;4995284;28;19910;-68
2022/12/25 08:50:12;;;;;;;;;;;;;;;8.13;100.00;101288.91;4996812;28;19913;-67
2022/12/25 08:52:37;;;;;;;;;;;;;;;8.14;100.00;101288.91;4997758;28;19937;-68
2022/12/25 08:55:03;;;;;;;;;;;;;;;8.17;100.00;101295.78;4993388;28;19917;-68
2022/12/25 08:57:28;;;;;;;;;;;;;;;8.18;100.00;101290.63;4996888;28;19913;-67
2022/12/25 08:59:53;;;;;;;;;;;;;;;8.19;100.00;101288.88;4996836;28;20413;-67
2022/12/25 09:02:18;;;;;;;;;;;;;;;8.21;100.00;101287.13;4997010;28;20396;-68
2022/12/25 09:04:44;;;;;;;;;;;;;;;8.22;100.00;101283.69;4995774;28;19952;-68
2022/12/25 09:07:09;;;;;;;;;;;;;;;8.20;100.00;101275.94;4992123;28;19918;-68
2022/12/25 09:09:35;;;;;;;;;;;;;;;8.22;100.00;101274.22;4987133;28;19996;-68
2022/12/25 09:12:01;;;;;;;;;;;;;;;8.23;100.00;101269.91;4982347;28;20588;-68
2022/12/25 09:14:26;;;;;;;;;;;;;;;8.24;100.00;101261.31;4996443;28;19910;-68
2022/12/25 09:16:51;;;;;;;;;;;;;;;8.20;100.00;101263.03;4977320;28;19913;-67
2022/12/25 09:19:16;;;;;;;;;;;;;;;8.21;100.00;101271.66;4994797;28;20400;-68
2022/12/25 09:21:42;;;;;;;;;;;;;;;8.23;100.00;101275.09;4995726;28;20270;-68
2022/12/25 09:24:07;;;;;;;;;;;;;;;8.27;100.00;101284.50;4996053;28;20372;-68
2022/12/25 09:26:32;;;;;;;;;;;;;;;8.31;100.00;101294.00;4996325;28;20311;-68
2022/12/25 09:28:57;;;;;;;;;;;;;;;8.34;100.00;101288.81;4978557;28;19924;-68
2022/12/25 09:31:23;;;;;;;;;;;;;;;8.38;100.00;101290.50;4983417;28;19910;-68
2022/12/25 09:33:49;;;;;;;;;;;;;;;8.41;100.00;101287.03;4994279;28;19921;-68
2022/12/25 09:36:14;;;;;;;;;;;;;;;8.42;100.00;101263.78;4987060;28;20307;-67
2022/12/25 09:38:39;;;;;;;;;;;;;;;8.42;100.00;101275.84;4995890;28;20372;-68
2022/12/25 09:41:10;;;;;;;;;;;;;;;8.42;100.00;101293.91;4995582;28;19913;-68
2022/12/25 09:43:41;;;;;;;;;;;;;;;8.40;100.00;101274.97;4993318;28;19920;-68
2022/12/25 09:46:12;;;;;;;;;;;;;;;8.36;100.00;101250.91;4990284;28;19918;-68
2022/12/25 09:48:39;;;;;;;;;;;;;;;8.30;100.00;101253.50;4991572;28;20442;-68
2022/12/25 09:51:08;;;;;;;;;;;;;;;8.25;100.00;101253.56;4995238;28;20064;-68
2022/12/25 09:53:38;;;;;;;;;;;;;;;8.20;100.00;101260.47;4979137;28;19909;-68
2022/12/25 09:56:11;;;;;;;;;;;;;;;8.20;100.00;101246.69;4992771;28;20000;-68
2022/12/25 09:58:37;;;;;;;;;;;;;;;8.20;100.00;101242.38;4994773;28;19917;-68
2022/12/25 10:01:07;;;;;;;;;;;;;;;8.18;100.00;101240.69;4980713;28;19960;-68
2022/12/25 10:03:41;;;;;;;;;;;;;;;8.16;100.00;101237.25;4986810;28;19913;-68
2022/12/25 10:06:10;;;;;;;;;;;;;;;8.19;100.00;101245.81;4994187;28;19913;-68
2022/12/25 10:08:35;;;;;;;;;;;;;;;8.21;100.00;101244.09;4987000;28;20014;-68
2022/12/25 10:11:09;;;;;;;;;;;;;;;8.23;100.00;101234.63;4987601;28;19910;-68
2022/12/25 10:13:44;;;;;;;;;;;;;;;8.23;100.00;101238.94;4993432;28;19917;-69
2022/12/25 10:16:20;;;;;;;;;;;;;;;8.25;100.00;101238.06;4994159;28;20004;-68
2022/12/25 10:19:04;;;;;;;;;;;;;;;8.24;100.00;101215.69;4994437;28;19913;-69
2022/12/25 10:21:30;;;;;;;;;;;;;;;8.23;100.00;101226.88;4988539;28;19944;-69
2022/12/25 10:23:58;;;;;;;;;;;;;;;8.25;100.00;101216.53;4993775;28;19914;-69
2022/12/25 10:26:24;;;;;;;;;;;;;;;8.27;100.00;101218.22;4989727;28;19902;-69
2022/12/25 10:28:56;;;;;;;;;;;;;;;8.31;100.00;101213.94;4989508;28;19914;-69
2022/12/25 10:31:22;;;;;;;;;;;;;;;8.33;100.00;101215.63;4991752;28;19928;-69
2022/12/25 10:33:48;;;;;;;;;;;;;;;8.36;100.00;101201.84;4994461;28;19920;-70
2022/12/25 10:36:16;;;;;;;;;;;;;;;8.37;100.00;101211.31;4988956;28;20303;-69
2022/12/25 10:38:41;;;;;;;;;;;;;;;8.39;100.00;101206.13;4989231;28;19968;-69
2022/12/25 10:41:25;;;;;;;;;;;;;;;8.38;100.00;101212.16;4992725;28;19925;-69
2022/12/25 10:43:54;;;;;;;;;;;;;;;8.37;100.00;101213.03;5000444;28;19952;-69
2022/12/25 10:46:21;;;;;;;;;;;;;;;8.36;100.00;101209.59;4990674;28;19918;-69
2022/12/25 10:48:48;;;;;;;;;;;;;;;8.35;100.00;101200.13;4998817;28;19989;-69
2022/12/25 10:51:24;;;;;;;;;;;;;;;8.35;100.00;101210.44;4993857;28;20368;-69
2022/12/25 10:53:49;;;;;;;;;;;;;;;8.34;100.00;101206.16;4987424;28;19922;-69
2022/12/25 10:56:16;;;;;;;;;;;;;;;8.32;100.00;101190.66;4992696;28;19935;-69
2022/12/25 10:58:41;;;;;;;;;;;;;;;8.31;100.00;101177.78;4989199;28;20334;-70
2022/12/25 11:01:07;;;;;;;;;;;;;;;8.29;100.00;101169.16;4993379;28;20553;-70
2022/12/25 11:03:34;;;;;;;;;;;;;;;8.28;100.00;101149.34;4992161;28;19910;-70
2022/12/25 11:06:00;;;;;;;;;;;;;;;8.26;100.00;101157.09;4991440;28;19912;-70
2022/12/25 11:08:27;;;;;;;;;;;;;;;8.27;100.00;101148.50;4993577;28;19918;-70
2022/12/25 11:11:15;;;;;;;;;;;;;;;8.26;100.00;101161.41;4990795;28;19921;-70
2022/12/25 11:13:47;;;;;;;;;;;;;;;8.29;100.00;101171.72;4992840;28;19920;-70
2022/12/25 11:16:13;;;;;;;;;;;;;;;8.29;100.00;101156.25;4989696;28;19944;-70
2022/12/25 11:18:49;;;;;;;;;;;;;;;8.29;100.00;101156.25;4991473;28;20016;-70
2022/12/25 11:21:25;;;;;;;;;;;;;;;8.28;100.00;101149.34;4990174;28;20292;-70
2022/12/25 11:23:56;;;;;;;;;;;;;;;8.29;100.00;101143.31;4993789;28;19993;-70
2022/12/25 11:26:21;;;;;;;;;;;;;;;8.33;100.00;101145.03;4975067;28;20554;-70
2022/12/25 11:28:48;;;;;;;;;;;;;;;8.33;100.00;101147.63;4990856;28;20474;-70
2022/12/25 11:31:18;;;;;;;;;;;;;;;8.35;100.00;101127.78;4973280;28;20492;-70
2022/12/25 11:33:56;;;;;;;;;;;;;;;8.37;100.00;101115.72;4995666;28;20301;-72
2022/12/25 11:36:39;;;;;;;;;;;;;;;8.39;100.00;101105.41;4991638;28;19910;-72
2022/12/25 11:39:23;;;;;;;;;;;;;;;8.41;100.00;101104.50;5000562;28;19940;-72
2022/12/25 11:41:55;;;;;;;;;;;;;;;8.41;100.00;101093.28;4993838;28;19928;-72
2022/12/25 11:44:26;;;;;;;;;;;;;;;8.41;100.00;101101.91;4997921;28;19913;-72
2022/12/25 11:46:53;;;;;;;;;;;;;;;8.42;100.00;101093.28;4996627;28;19914;-72
2022/12/25 11:49:20;;;;;;;;;;;;;;;8.40;100.00;101095.03;4992926;28;19929;-72
2022/12/25 11:51:47;;;;;;;;;;;;;;;8.39;100.00;101092.47;4993421;28;19964;-72
2022/12/25 11:54:13;;;;;;;;;;;;;;;8.37;100.00;101092.50;4990678;28;20570;-72
2022/12/25 11:56:38;;;;;;;;;;;;;;;8.38;100.00;101093.34;4993189;28;20455;-72
2022/12/25 11:59:13;;;;;;;;;;;;;;;8.35;100.00;101089.06;4988747;28;20372;-68
2022/12/25 12:01:43;;;;;;;;;;;;;;;8.32;100.00;101078.78;4992496;28;19969;-68
2022/12/25 12:04:19;;;;;;;;;;;;;;;8.29;100.00;101071.00;4992140;28;20396;-68
2022/12/25 12:06:48;;;;;;;;;;;;;;;8.28;100.00;101066.72;4993464;28;20372;-68
2022/12/25 12:09:32;;;;;;;;;;;;;;;8.29;100.00;101055.53;5000549;28;19921;-68
2022/12/25 12:12:02;;;;;;;;;;;;;;;8.33;100.00;101063.25;4992780;28;19913;-68
2022/12/25 12:14:44;;;;;;;;;;;;;;;8.37;100.00;101061.50;4985540;28;19914;-67
2022/12/25 12:17:11;;;;;;;;;;;;;;;8.37;100.00;101071.81;4994742;28;20001;-68
2022/12/25 12:19:37;;;;;;;;;;;;;;;8.38;100.00;101070.09;4992773;28;19913;-68
2022/12/25 12:22:03;;;;;;;;;;;;;;;8.39;100.00;101072.69;4993209;28;19921;-68
2022/12/25 12:24:37;;;;;;;;;;;;;;;8.42;100.00;101074.34;4995066;28;19921;-68
2022/12/25 12:27:14;;;;;;;;;;;;;;;8.46;100.00;101063.13;4992821;28;20004;-67
2022/12/25 12:29:41;;;;;;;;;;;;;;;8.48;100.00;101064.81;4991242;28;19910;-73
2022/12/25 12:32:23;;;;;;;;;;;;;;;8.49;100.00;101068.25;4988571;28;19937;-73
2022/12/25 12:34:49;;;;;;;;;;;;;;;8.49;100.00;101071.69;4992003;28;20376;-73
2022/12/25 12:37:22;;;;;;;;;;;;;;;8.50;100.00;101057.03;4991020;28;19921;-73
2022/12/25 12:39:52;;;;;;;;;;;;;;;8.50;100.00;101042.41;4987788;28;20287;-73
2022/12/25 12:42:19;;;;;;;;;;;;;;;8.49;100.00;101032.94;4984439;28;19918;-73
2022/12/25 12:44:46;;;;;;;;;;;;;;;8.52;100.00;101029.47;4994581;28;20315;-74
2022/12/25 12:47:35;;;;;;;;;;;;;;;8.58;100.00;101035.41;4989684;28;20377;-74
2022/12/25 12:50:01;;;;;;;;;;;;;;;8.61;100.00;101025.03;4985839;28;20450;-73
2022/12/25 12:52:31;;;;;;;;;;;;;;;8.63;100.00;101023.28;4991669;28;19918;-73
2022/12/25 12:55:07;;;;;;;;;;;;;;;8.61;100.00;101030.19;4990880;28;20000;-73
2022/12/25 12:57:40;;;;;;;;;;;;;;;8.60;100.00;101022.44;4997438;28;19914;-73
2022/12/25 13:00:05;;;;;;;;;;;;;;;8.58;100.00;101019.91;4979998;28;20074;-68
2022/12/25 13:02:39;;;;;;;;;;;;;;;8.56;100.00;101016.47;4990393;28;20341;-68
2022/12/25 13:05:17;;;;;;;;;;;;;;;8.56;100.00;101013.03;4989318;28;20372;-68
2022/12/25 13:07:43;;;;;;;;;;;;;;;8.58;100.00;101012.16;4994851;28;20343;-68
2022/12/25 13:10:17;;;;;;;;;;;;;;;8.62;100.00;101015.53;4989612;28;19920;-68
2022/12/25 13:12:42;;;;;;;;;;;;;;;8.67;100.00;101014.59;4997139;28;20288;-68
2022/12/25 13:15:12;;;;;;;;;;;;;;;8.71;100.00;101013.72;4991249;28;19929;-68
2022/12/25 13:17:37;;;;;;;;;;;;;;;8.71;100.00;101005.09;4991177;28;19909;-68
2022/12/25 13:20:03;;;;;;;;;;;;;;;8.69;100.00;100996.50;4993427;28;20407;-68
2022/12/25 13:22:32;;;;;;;;;;;;;;;8.67;100.00;100985.31;4981598;28;19917;-68
2022/12/25 13:24:59;;;;;;;;;;;;;;;8.63;100.00;100989.69;4981050;28;19914;-68
2022/12/25 13:27:27;;;;;;;;;;;;;;;8.64;100.00;100983.66;4977094;28;20496;-68
2022/12/25 13:29:52;;;;;;;;;;;;;;;8.67;100.00;100986.19;4983935;28;19913;-73
2022/12/25 13:32:20;;;;;;;;;;;;;;;8.68;100.00;100976.69;4991388;28;19913;-73
2022/12/25 13:34:46;;;;;;;;;;;;;;;8.67;100.00;100981.00;4991794;28;19921;-73
2022/12/25 13:37:13;;;;;;;;;;;;;;;8.69;100.00;100979.28;4983744;28;19921;-73
2022/12/25 13:39:47;;;;;;;;;;;;;;;8.71;100.00;100972.34;4985698;28;19914;-73
2022/12/25 13:42:15;;;;;;;;;;;;;;;8.70;100.00;100962.03;4976604;28;19917;-73
2022/12/25 13:44:43;;;;;;;;;;;;;;;8.68;100.00;100949.13;4985622;28;19921;-73
2022/12/25 13:47:15;;;;;;;;;;;;;;;8.68;100.00;100962.06;4983032;28;19928;-73
2022/12/25 13:49:40;;;;;;;;;;;;;;;8.70;100.00;100956.88;4993127;28;19918;-73
2022/12/25 13:52:13;;;;;;;;;;;;;;;8.73;100.00;100964.59;4990211;28;19917;-73
2022/12/25 13:54:39;;;;;;;;;;;;;;;8.76;100.00;100964.53;4991607;28;19936;-73
2022/12/25 13:57:10;;;;;;;;;;;;;;;8.77;100.00;100973.13;4992739;28;20000;-73
2022/12/25 13:59:36;;;;;;;;;;;;;;;8.77;100.00;100957.63;4991687;28;19917;-68
2022/12/25 14:02:02;;;;;;;;;;;;;;;8.75;100.00;100954.22;4994983;28;19924;-68
2022/12/25 14:04:27;;;;;;;;;;;;;;;8.72;100.00;100939.63;4994831;28;19945;-69
2022/12/25 14:06:52;;;;;;;;;;;;;;;8.71;100.00;100945.66;4994246;28;20352;-69
2022/12/25 14:09:18;;;;;;;;;;;;;;;8.71;100.00;100948.25;4985829;28;20347;-69
2022/12/25 14:11:48;;;;;;;;;;;;;;;8.72;100.00;100937.03;4991214;28;19921;-69
2022/12/25 14:14:18;;;;;;;;;;;;;;;8.71;100.00;100948.25;4992998;28;20379;-69
2022/12/25 14:16:47;;;;;;;;;;;;;;;8.73;100.00;100950.81;4996358;28;19905;-69
2022/12/25 14:19:23;;;;;;;;;;;;;;;8.73;100.00;100954.25;5003131;28;20437;-68
2022/12/25 14:21:51;;;;;;;;;;;;;;;8.73;100.00;100942.16;4991508;28;19991;-69